createdAt,value
2023-05-06T00:01:00.706Z,98873.47
2023-05-06T00:03:29.260Z,98875.66
2023-05-06T00:05:57.537Z,98875.69
2023-05-06T00:08:26.154Z,98864.56
2023-05-06T00:10:53.955Z,98871.94
2023-05-06T00:13:21.784Z,98861.03
2023-05-06T00:15:51.101Z,98867.16
2023-05-06T00:18:18.863Z,98863.09
2023-05-06T00:20:46.705Z,98857.06
2023-05-06T00:23:14.472Z,98859.91
2023-05-06T00:25:43.478Z,98860.50
2023-05-06T00:28:11.276Z,98858.34
2023-05-06T00:30:39.748Z,98862.31
2023-05-06T00:33:10.033Z,98873.19
2023-05-06T00:35:37.948Z,98877.03
2023-05-06T00:38:10.910Z,98872.69
2023-05-06T00:40:39.433Z,98869.19
2023-05-06T00:43:08.909Z,98864.59
2023-05-06T00:45:38.143Z,98861.53
2023-05-06T00:48:06.452Z,98861.31
2023-05-06T00:50:36.317Z,98850.69
2023-05-06T00:53:06.618Z,98843.13
2023-05-06T00:55:34.613Z,98837.06
2023-05-06T00:58:02.692Z,98842.34
2023-05-06T01:00:30.669Z,98839.91
2023-05-06T01:02:58.616Z,98841.44
2023-05-06T01:05:33.959Z,98847.91
2023-05-06T01:08:11.949Z,98864.94
2023-05-06T01:10:46.239Z,98865.50
2023-05-06T01:13:21.425Z,98863.09
2023-05-06T01:15:53.749Z,98876.47
2023-05-06T01:18:23.481Z,98878.22
2023-05-06T01:20:53.587Z,98881.75
2023-05-06T01:23:22.929Z,98876.88
2023-05-06T01:25:51.951Z,98872.19
2023-05-06T01:28:20.019Z,98875.72
2023-05-06T01:30:54.497Z,98872.81
2023-05-06T01:33:28.639Z,98863.34
2023-05-06T01:36:08.201Z,98856.03
2023-05-06T01:38:41.991Z,98865.38
2023-05-06T01:41:16.085Z,98864.63
2023-05-06T01:43:45.687Z,98871.97
2023-05-06T01:46:17.372Z,98870.66
2023-05-06T01:48:48.013Z,98880.06
2023-05-06T01:51:17.069Z,98880.00
2023-05-06T01:53:46.222Z,98870.16
2023-05-06T01:56:14.204Z,98875.22
2023-05-06T01:58:42.004Z,98878.97
2023-05-06T02:01:09.815Z,98872.13
2023-05-06T02:03:38.182Z,98873.44
2023-05-06T02:06:06.193Z,98866.19
2023-05-06T02:08:38.254Z,98868.69
2023-05-06T02:11:08.246Z,98873.03
2023-05-06T02:13:36.800Z,98869.66
2023-05-06T02:16:05.319Z,98874.94
2023-05-06T02:18:33.528Z,98870.63
2023-05-06T02:21:01.298Z,98864.97
2023-05-06T02:23:29.080Z,98862.22
2023-05-06T02:25:58.022Z,98863.75
2023-05-06T02:28:27.231Z,98870.50
2023-05-06T02:30:57.934Z,98870.28
2023-05-06T02:33:26.118Z,98855.72
2023-05-06T02:35:53.945Z,98845.09
2023-05-06T02:38:22.885Z,98836.66
2023-05-06T02:40:50.632Z,98843.41
2023-05-06T02:43:18.376Z,98842.47
2023-05-06T02:45:47.877Z,98842.78
2023-05-06T02:48:16.465Z,98845.88
2023-05-06T02:50:44.313Z,98846.03
2023-05-06T02:53:13.227Z,98847.22
2023-05-06T02:55:41.093Z,98854.06
2023-05-06T02:58:08.936Z,98842.53
2023-05-06T03:00:37.101Z,98844.66
2023-05-06T03:03:06.590Z,98851.38
2023-05-06T03:05:34.550Z,98857.63
2023-05-06T03:08:02.429Z,98858.03
2023-05-06T03:10:30.826Z,98843.94
2023-05-06T03:12:59.851Z,98863.91
2023-05-06T03:15:29.241Z,98862.38
2023-05-06T03:17:57.109Z,98869.28
2023-05-06T03:20:28.815Z,98878.94
2023-05-06T03:22:57.851Z,98874.22
2023-05-06T03:25:26.014Z,98872.88
2023-05-06T03:27:54.534Z,98863.81
2023-05-06T03:30:24.079Z,98861.22
2023-05-06T03:32:56.062Z,98865.25
2023-05-06T03:35:31.241Z,98860.63
2023-05-06T03:38:00.883Z,98860.34
2023-05-06T03:40:36.746Z,98857.72
2023-05-06T03:43:04.793Z,98849.53
2023-05-06T03:45:33.684Z,98850.72
2023-05-06T03:48:04.188Z,98838.78
2023-05-06T03:50:35.553Z,98836.69
2023-05-06T03:53:03.750Z,98828.28
2023-05-06T03:55:34.394Z,98821.44
2023-05-06T03:58:02.779Z,98811.69
2023-05-06T04:00:30.851Z,98811.69
2023-05-06T04:02:59.062Z,98809.47
2023-05-06T04:05:34.902Z,98816.56
2023-05-06T04:08:03.045Z,98811.03
2023-05-06T04:10:31.181Z,98801.59
2023-05-06T04:13:04.762Z,98803.22
2023-05-06T04:15:41.419Z,98794.88
2023-05-06T04:18:15.393Z,98806.06
2023-05-06T04:20:47.406Z,98814.09
2023-05-06T04:23:16.460Z,98815.78
2023-05-06T04:25:48.716Z,98809.34
2023-05-06T04:28:18.384Z,98815.28
2023-05-06T04:30:50.185Z,98824.03
2023-05-06T04:33:19.820Z,98818.78
2023-05-06T04:35:54.203Z,98829.00
2023-05-06T04:38:25.833Z,98841.19
2023-05-06T04:40:55.435Z,98848.34
2023-05-06T04:43:23.589Z,98848.34
2023-05-06T04:45:57.267Z,98849.72
2023-05-06T04:48:29.309Z,98858.28
2023-05-06T04:51:00.778Z,98856.81
2023-05-06T04:53:29.098Z,98860.59
2023-05-06T04:55:56.887Z,98856.44
2023-05-06T04:58:24.816Z,98853.88
2023-05-06T05:00:52.680Z,98851.22
2023-05-06T05:03:20.775Z,98851.81
2023-05-06T05:05:48.856Z,98853.16
2023-05-06T05:08:21.909Z,98854.50
2023-05-06T05:10:50.120Z,98861.28
2023-05-06T05:13:23.851Z,98868.22
2023-05-06T05:15:55.861Z,98873.53
2023-05-06T05:18:26.145Z,98874.28
2023-05-06T05:20:58.018Z,98877.34
2023-05-06T05:23:27.489Z,98888.72
2023-05-06T05:25:55.871Z,98889.38
2023-05-06T05:28:23.713Z,98894.44
2023-05-06T05:30:52.657Z,98878.66
2023-05-06T05:33:21.156Z,98883.16
2023-05-06T05:35:49.323Z,98892.75
2023-05-06T05:38:17.227Z,98895.78
2023-05-06T05:40:49.304Z,98896.88
2023-05-06T05:43:17.297Z,98896.53
2023-05-06T05:45:45.126Z,98893.41
2023-05-06T05:48:13.373Z,98888.38
2023-05-06T05:50:41.178Z,98894.59
2023-05-06T05:53:09.642Z,98890.53
2023-05-06T05:55:38.992Z,98897.41
2023-05-06T05:58:08.265Z,98885.03
2023-05-06T06:00:36.306Z,98880.44
2023-05-06T06:03:11.294Z,98874.69
2023-05-06T06:05:40.184Z,98871.25
2023-05-06T06:08:08.638Z,98888.81
2023-05-06T06:10:36.520Z,98894.00
2023-05-06T06:13:11.932Z,98893.19
2023-05-06T06:15:39.939Z,98906.63
2023-05-06T06:18:08.732Z,98898.53
2023-05-06T06:20:38.233Z,98903.38
2023-05-06T06:23:37.505Z,98900.19
2023-05-06T06:26:06.455Z,98903.56
2023-05-06T06:28:35.972Z,98891.81
2023-05-06T06:31:06.215Z,98901.03
2023-05-06T06:33:34.137Z,98912.94
2023-05-06T06:36:02.069Z,98911.59
2023-05-06T06:38:29.959Z,98909.97
2023-05-06T06:40:57.779Z,98901.38
2023-05-06T06:43:25.967Z,98901.53
2023-05-06T06:46:01.684Z,98905.47
2023-05-06T06:48:29.597Z,98892.94
2023-05-06T06:50:57.590Z,98902.59
2023-05-06T06:53:25.555Z,98897.44
2023-05-06T06:55:56.504Z,98897.03
2023-05-06T06:58:24.346Z,98901.81
2023-05-06T07:00:52.506Z,98897.84
2023-05-06T07:03:21.966Z,98886.72
2023-05-06T07:05:50.172Z,98882.00
2023-05-06T07:08:18.164Z,98891.75
2023-05-06T07:10:46.033Z,98903.31
2023-05-06T07:13:14.164Z,98896.22
2023-05-06T07:15:42.243Z,98893.00
2023-05-06T07:18:10.927Z,98888.91
2023-05-06T07:20:40.170Z,98896.28
2023-05-06T07:23:08.001Z,98906.72
2023-05-06T07:25:35.818Z,98906.44
2023-05-06T07:28:03.729Z,98901.81
2023-05-06T07:30:31.749Z,98897.84
2023-05-06T07:32:59.866Z,98892.91
2023-05-06T07:35:27.932Z,98892.53
2023-05-06T07:38:00.423Z,98890.44
2023-05-06T07:40:28.467Z,98888.06
2023-05-06T07:42:57.124Z,98893.84
2023-05-06T07:45:26.701Z,98898.31
2023-05-06T07:47:54.888Z,98889.66
2023-05-06T07:50:22.845Z,98899.31
2023-05-06T07:52:51.932Z,98887.53
2023-05-06T07:55:21.084Z,98890.97
2023-05-06T07:57:48.924Z,98892.13
2023-05-06T08:00:17.008Z,98883.00
2023-05-06T08:02:46.830Z,98882.75
2023-05-06T08:05:15.339Z,98893.03
2023-05-06T08:07:43.741Z,98897.56
2023-05-06T08:10:12.024Z,98893.47
2023-05-06T08:12:41.686Z,98905.00
2023-05-06T08:15:11.482Z,98903.03
2023-05-06T08:17:39.779Z,98900.66
2023-05-06T08:20:08.585Z,98897.50
2023-05-06T08:22:36.368Z,98901.50
2023-05-06T08:25:04.427Z,98905.44
2023-05-06T08:27:32.185Z,98894.50
2023-05-06T08:30:01.431Z,98890.81
2023-05-06T08:32:29.231Z,98894.91
2023-05-06T08:34:57.066Z,98897.16
2023-05-06T08:37:24.904Z,98892.47
2023-05-06T08:39:52.787Z,98889.63
2023-05-06T08:42:22.698Z,98896.38
2023-05-06T08:44:52.774Z,98894.00
2023-05-06T08:47:21.964Z,98891.47
2023-05-06T08:49:50.323Z,98888.72
2023-05-06T08:52:21.427Z,98883.03
2023-05-06T08:54:53.406Z,98890.56
2023-05-06T08:57:22.841Z,98896.03
2023-05-06T08:59:51.591Z,98897.72
2023-05-06T09:02:21.703Z,98898.81
2023-05-06T09:04:50.296Z,98888.13
2023-05-06T09:07:18.495Z,98899.69
2023-05-06T09:09:46.342Z,98901.59
2023-05-06T09:12:14.888Z,98893.75
2023-05-06T09:14:43.540Z,98893.81
2023-05-06T09:17:23.645Z,98891.44
2023-05-06T09:19:54.548Z,98894.13
2023-05-06T09:22:23.051Z,98893.75
2023-05-06T09:24:56.677Z,98886.13
2023-05-06T09:27:26.157Z,98886.28
2023-05-06T09:30:02.592Z,98891.78
2023-05-06T09:32:30.645Z,98887.13
2023-05-06T09:35:00.592Z,98887.22
2023-05-06T09:37:28.777Z,98882.81
2023-05-06T09:39:58.150Z,98879.69
2023-05-06T09:42:27.111Z,98889.06
2023-05-06T09:44:56.185Z,98891.28
2023-05-06T09:47:25.542Z,98891.25
2023-05-06T09:49:57.441Z,98888.09
2023-05-06T09:52:28.108Z,98885.78
2023-05-06T09:54:56.210Z,98876.63
2023-05-06T09:57:24.497Z,98877.69
2023-05-06T09:59:53.180Z,98882.00
2023-05-06T10:02:21.332Z,98871.63
2023-05-06T10:04:50.764Z,98866.06
2023-05-06T10:07:23.584Z,98875.97
2023-05-06T10:09:53.654Z,98873.09
2023-05-06T10:12:21.783Z,98865.00
2023-05-06T10:14:49.815Z,98869.78
2023-05-06T10:17:19.606Z,98870.56
2023-05-06T10:19:49.010Z,98872.56
2023-05-06T10:22:23.593Z,98864.16
2023-05-06T10:24:59.585Z,98869.16
2023-05-06T10:27:29.503Z,98863.00
2023-05-06T10:30:00.480Z,98850.41
2023-05-06T10:32:33.182Z,98855.06
2023-05-06T10:35:11.095Z,98846.47
2023-05-06T10:37:40.551Z,98845.03
2023-05-06T10:40:12.302Z,98845.66
2023-05-06T10:42:40.815Z,98846.16
2023-05-06T10:45:10.835Z,98839.34
2023-05-06T10:48:09.933Z,98839.16
2023-05-06T10:50:37.875Z,98827.41
2023-05-06T10:53:05.693Z,98823.53
2023-05-06T10:55:36.260Z,98822.13
2023-05-06T10:58:14.544Z,98821.44
2023-05-06T11:00:42.721Z,98822.25
2023-05-06T11:03:14.220Z,98817.88
2023-05-06T11:05:48.911Z,98812.31
2023-05-06T11:08:23.394Z,98807.06
2023-05-06T11:10:52.758Z,98806.56
2023-05-06T11:13:26.246Z,98810.47
2023-05-06T11:15:55.546Z,98804.25
2023-05-06T11:18:44.579Z,98809.34
2023-05-06T11:21:38.438Z,98803.56
2023-05-06T11:24:12.354Z,98793.09
2023-05-06T11:26:45.075Z,98788.63
2023-05-06T11:29:12.926Z,98787.91
2023-05-06T11:31:42.920Z,98788.69
2023-05-06T11:34:13.862Z,98784.16
2023-05-06T11:36:50.176Z,98787.72
2023-05-06T11:39:18.009Z,98789.13
2023-05-06T11:41:47.178Z,98789.63
2023-05-06T11:44:25.914Z,98785.13
2023-05-06T11:46:57.362Z,98784.16
2023-05-06T11:49:25.718Z,98777.19
2023-05-06T11:51:53.904Z,98785.31
2023-05-06T11:54:22.978Z,98783.00
2023-05-06T11:56:54.009Z,98791.22
2023-05-06T11:59:29.540Z,98786.75
2023-05-06T12:01:58.759Z,98787.56
2023-05-06T12:04:26.745Z,98780.72
2023-05-06T12:06:55.702Z,98786.09
2023-05-06T12:09:24.382Z,98782.50
2023-05-06T12:11:55.002Z,98784.00
2023-05-06T12:14:23.165Z,98785.16
2023-05-06T12:16:51.068Z,98785.41
2023-05-06T12:19:19.595Z,98776.81
2023-05-06T12:21:47.425Z,98767.75
2023-05-06T12:24:15.647Z,98769.00
2023-05-06T12:26:45.834Z,98772.66
2023-05-06T12:29:19.501Z,98784.06
2023-05-06T12:31:48.164Z,98772.34
2023-05-06T12:34:17.890Z,98776.28
2023-05-06T12:36:47.286Z,98778.53
2023-05-06T12:39:17.482Z,98769.91
2023-05-06T12:41:46.455Z,98766.22
2023-05-06T12:44:36.158Z,98766.97
2023-05-06T12:47:07.362Z,98763.00
2023-05-06T12:49:51.965Z,98773.44
2023-05-06T12:52:21.540Z,98769.78
2023-05-06T12:54:50.046Z,98767.16
2023-05-06T12:57:17.897Z,98761.72
2023-05-06T12:59:47.506Z,98761.13
2023-05-06T13:02:16.060Z,98754.13
2023-05-06T13:04:44.455Z,98754.19
2023-05-06T13:07:12.700Z,98753.28
2023-05-06T13:09:40.557Z,98763.56
2023-05-06T13:12:08.544Z,98748.75
2023-05-06T13:14:39.219Z,98746.34
2023-05-06T13:17:09.652Z,98738.91
2023-05-06T13:19:37.640Z,98729.78
2023-05-06T13:22:05.507Z,98736.75
2023-05-06T13:24:33.333Z,98723.66
2023-05-06T13:27:01.461Z,98717.28
2023-05-06T13:29:29.475Z,98716.81
2023-05-06T13:31:57.615Z,98713.22
2023-05-06T13:34:26.944Z,98707.09
2023-05-06T13:36:56.449Z,98705.97
2023-05-06T13:39:24.902Z,98700.19
2023-05-06T13:41:53.993Z,98697.47
2023-05-06T13:44:22.346Z,98699.03
2023-05-06T13:46:50.455Z,98699.28
2023-05-06T13:49:19.468Z,98695.78
2023-05-06T13:51:48.789Z,98698.34
2023-05-06T13:54:16.591Z,98698.72
2023-05-06T13:56:44.392Z,98690.06
2023-05-06T13:59:13.879Z,98694.41
2023-05-06T14:01:42.201Z,98684.16
2023-05-06T14:04:10.025Z,98686.81
2023-05-06T14:06:38.760Z,98688.13
2023-05-06T14:09:08.002Z,98681.44
2023-05-06T14:11:35.733Z,98678.50
2023-05-06T14:14:03.526Z,98674.97
2023-05-06T14:16:31.412Z,98677.84
2023-05-06T14:18:59.259Z,98681.13
2023-05-06T14:21:27.052Z,98677.66
2023-05-06T14:23:55.384Z,98681.69
2023-05-06T14:26:24.611Z,98674.41
2023-05-06T14:28:52.305Z,98675.22
2023-05-06T14:31:20.140Z,98672.66
2023-05-06T14:33:47.950Z,98671.09
2023-05-06T14:36:19.432Z,98660.63
2023-05-06T14:38:47.172Z,98666.78
2023-05-06T14:41:14.964Z,98660.22
2023-05-06T14:43:44.064Z,98655.16
2023-05-06T14:46:14.446Z,98660.53
2023-05-06T14:48:43.271Z,98653.41
2023-05-06T14:51:11.073Z,98665.22
2023-05-06T14:53:38.879Z,98650.56
2023-05-06T14:56:09.115Z,98656.81
2023-05-06T14:58:37.085Z,98647.56
2023-05-06T15:01:06.954Z,98644.59
2023-05-06T15:03:36.165Z,98647.34
2023-05-06T15:06:04.576Z,98646.31
2023-05-06T15:08:32.648Z,98651.59
2023-05-06T15:11:03.044Z,98637.63
2023-05-06T15:13:31.860Z,98642.25
2023-05-06T15:15:59.824Z,98638.03
2023-05-06T15:18:29.003Z,98645.31
2023-05-06T15:20:58.596Z,98642.09
2023-05-06T15:23:26.516Z,98639.59
2023-05-06T15:25:54.547Z,98651.63
2023-05-06T15:28:24.362Z,98643.31
2023-05-06T15:30:52.724Z,98647.16
2023-05-06T15:33:21.962Z,98642.84
2023-05-06T15:35:51.414Z,98633.28
2023-05-06T15:38:19.098Z,98639.34
2023-05-06T15:40:51.618Z,98651.66
2023-05-06T15:43:23.832Z,98645.25
2023-05-06T15:45:52.064Z,98647.56
2023-05-06T15:48:19.852Z,98651.31
2023-05-06T15:50:48.106Z,98645.75
2023-05-06T15:53:17.200Z,98649.19
2023-05-06T15:55:49.503Z,98647.22
2023-05-06T15:58:24.602Z,98638.84
2023-05-06T16:00:52.338Z,98641.50
2023-05-06T16:03:20.212Z,98639.06
2023-05-06T16:05:48.310Z,98630.63
2023-05-06T16:08:20.514Z,98643.13
2023-05-06T16:10:48.538Z,98642.69
2023-05-06T16:13:16.478Z,98638.38
2023-05-06T16:15:44.590Z,98640.44
2023-05-06T16:18:12.917Z,98636.41
2023-05-06T16:20:41.101Z,98630.03
2023-05-06T16:23:08.930Z,98635.16
2023-05-06T16:25:38.910Z,98641.59
2023-05-06T16:28:07.684Z,98640.31
2023-05-06T16:30:35.584Z,98631.69
2023-05-06T16:33:04.029Z,98637.06
2023-05-06T16:35:32.175Z,98630.94
2023-05-06T16:38:00.109Z,98630.31
2023-05-06T16:40:28.811Z,98623.41
2023-05-06T16:42:58.010Z,98630.66
2023-05-06T16:45:25.844Z,98626.53
2023-05-06T16:47:53.733Z,98617.16
2023-05-06T16:50:21.621Z,98620.66
2023-05-06T16:52:49.396Z,98626.00
2023-05-06T16:55:17.266Z,98618.16
2023-05-06T16:57:45.072Z,98625.56
2023-05-06T17:00:16.453Z,98618.91
2023-05-06T17:02:44.486Z,98618.16
2023-05-06T17:05:12.306Z,98618.09
2023-05-06T17:07:40.194Z,98611.75
2023-05-06T17:10:09.071Z,98607.13
2023-05-06T17:12:37.092Z,98611.16
2023-05-06T17:15:06.088Z,98613.66
2023-05-06T17:17:35.704Z,98602.53
2023-05-06T17:20:05.221Z,98610.75
2023-05-06T17:22:33.064Z,98601.59
2023-05-06T17:25:00.941Z,98596.81
2023-05-06T17:27:28.705Z,98601.28
2023-05-06T17:29:56.505Z,98599.28
2023-05-06T17:32:24.326Z,98597.25
2023-05-06T17:34:53.565Z,98599.97
2023-05-06T17:37:21.421Z,98598.03
2023-05-06T17:39:49.285Z,98596.78
2023-05-06T17:42:17.002Z,98585.94
2023-05-06T17:44:44.826Z,98587.22
2023-05-06T17:47:12.632Z,98589.31
2023-05-06T17:49:40.587Z,98591.28
2023-05-06T17:52:09.696Z,98589.53
2023-05-06T17:54:39.392Z,98586.06
2023-05-06T17:57:07.176Z,98590.53
2023-05-06T17:59:35.064Z,98587.94
2023-05-06T18:02:02.955Z,98584.47
2023-05-06T18:04:30.863Z,98593.91
2023-05-06T18:06:58.738Z,98600.69
2023-05-06T18:09:27.844Z,98593.34
2023-05-06T18:11:55.682Z,98593.28
2023-05-06T18:14:23.472Z,98596.31
2023-05-06T18:16:51.280Z,98599.94
2023-05-06T18:19:19.179Z,98596.69
2023-05-06T18:21:47.221Z,98602.13
2023-05-06T18:24:16.736Z,98601.09
2023-05-06T18:26:46.516Z,98602.50
2023-05-06T18:29:14.633Z,98604.09
2023-05-06T18:31:42.997Z,98608.81
2023-05-06T18:34:10.858Z,98609.31
2023-05-06T18:36:38.858Z,98612.69
2023-05-06T18:39:07.046Z,98617.28
2023-05-06T18:41:34.843Z,98625.59
2023-05-06T18:44:05.125Z,98623.78
2023-05-06T18:46:33.837Z,98627.13
2023-05-06T18:49:01.956Z,98630.63
2023-05-06T18:51:29.798Z,98630.00
2023-05-06T18:53:57.721Z,98637.03
2023-05-06T18:56:25.568Z,98638.00
2023-05-06T18:58:53.492Z,98630.19
2023-05-06T19:01:22.901Z,98641.66
2023-05-06T19:03:51.779Z,98641.50
2023-05-06T19:06:22.692Z,98645.97
2023-05-06T19:08:50.580Z,98645.88
2023-05-06T19:11:19.368Z,98643.97
2023-05-06T19:13:47.480Z,98651.66
2023-05-06T19:16:15.473Z,98656.41
2023-05-06T19:18:44.730Z,98657.69
2023-05-06T19:21:12.645Z,98653.22
2023-05-06T19:23:40.663Z,98654.25
2023-05-06T19:26:10.931Z,98656.44
2023-05-06T19:28:38.776Z,98652.41
2023-05-06T19:31:08.283Z,98655.31
2023-05-06T19:33:36.693Z,98657.97
2023-05-06T19:36:07.165Z,98658.03
2023-05-06T19:38:35.289Z,98662.16
2023-05-06T19:41:03.105Z,98657.84
2023-05-06T19:43:31.231Z,98653.38
2023-05-06T19:45:59.205Z,98653.69
2023-05-06T19:48:27.176Z,98661.22
2023-05-06T19:50:54.914Z,98654.72
2023-05-06T19:53:24.200Z,98657.69
2023-05-06T19:55:52.580Z,98657.44
2023-05-06T19:58:23.632Z,98663.84
2023-05-06T20:00:51.840Z,98658.56
2023-05-06T20:03:19.817Z,98665.34
2023-05-06T20:05:47.613Z,98667.78
2023-05-06T20:08:15.349Z,98661.13
2023-05-06T20:10:44.542Z,98659.03
2023-05-06T20:13:12.576Z,98656.03
2023-05-06T20:15:41.498Z,98656.94
2023-05-06T20:18:09.523Z,98660.56
2023-05-06T20:20:40.552Z,98658.41
2023-05-06T20:23:08.647Z,98653.94
2023-05-06T20:25:37.273Z,98660.94
2023-05-06T20:28:07.747Z,98658.72
2023-05-06T20:30:35.701Z,98655.56
2023-05-06T20:33:03.620Z,98654.88
2023-05-06T20:35:31.685Z,98659.53
2023-05-06T20:37:59.762Z,98657.97
2023-05-06T20:40:28.529Z,98660.56
2023-05-06T20:42:56.361Z,98661.13
2023-05-06T20:45:26.012Z,98659.28
2023-05-06T20:47:54.072Z,98665.75
2023-05-06T20:50:22.013Z,98664.00
2023-05-06T20:52:50.137Z,98663.22
2023-05-06T20:55:20.380Z,98666.38
2023-05-06T20:57:48.644Z,98664.97
2023-05-06T21:00:16.670Z,98668.81
2023-05-06T21:02:45.982Z,98667.03
2023-05-06T21:05:14.255Z,98670.91
2023-05-06T21:07:42.195Z,98665.28
2023-05-06T21:10:12.595Z,98667.06
2023-05-06T21:12:40.440Z,98660.63
2023-05-06T21:15:09.698Z,98658.69
2023-05-06T21:17:37.776Z,98657.34
2023-05-06T21:20:08.685Z,98649.88
2023-05-06T21:22:36.484Z,98660.06
2023-05-06T21:25:05.179Z,98660.47
2023-05-06T21:27:33.164Z,98660.06
2023-05-06T21:30:00.919Z,98655.41
2023-05-06T21:32:32.802Z,98653.53
2023-05-06T21:35:03.134Z,98653.66
2023-05-06T21:37:32.310Z,98650.38
2023-05-06T21:40:02.659Z,98648.78
2023-05-06T21:42:30.448Z,98643.84
2023-05-06T21:44:58.192Z,98648.88
2023-05-06T21:47:26.683Z,98645.34
2023-05-06T21:49:54.508Z,98640.63
2023-05-06T21:52:22.314Z,98643.03
2023-05-06T21:54:51.515Z,98630.34
2023-05-06T21:57:19.340Z,98632.25
2023-05-06T21:59:47.227Z,98633.91
2023-05-06T22:02:15.082Z,98633.38
2023-05-06T22:04:42.881Z,98635.81
2023-05-06T22:07:10.602Z,98636.69
2023-05-06T22:09:38.613Z,98643.06
2023-05-06T22:12:09.273Z,98637.09
2023-05-06T22:14:41.165Z,98641.16
2023-05-06T22:17:10.369Z,98640.91
2023-05-06T22:19:38.623Z,98631.41
2023-05-06T22:22:06.888Z,98635.59
2023-05-06T22:24:34.667Z,98640.72
2023-05-06T22:27:03.072Z,98648.84
2023-05-06T22:29:34.930Z,98650.03
2023-05-06T22:32:03.332Z,98656.91
2023-05-06T22:34:31.392Z,98643.66
2023-05-06T22:37:00.734Z,98644.34
2023-05-06T22:39:28.978Z,98642.66
2023-05-06T22:41:57.185Z,98639.94
2023-05-06T22:44:24.950Z,98643.03
2023-05-06T22:46:54.779Z,98647.56
2023-05-06T22:49:23.442Z,98648.44
2023-05-06T22:51:51.241Z,98647.41
2023-05-06T22:54:18.991Z,98650.28
2023-05-06T22:56:46.792Z,98649.44
2023-05-06T22:59:14.956Z,98646.81
2023-05-06T23:01:42.879Z,98651.16
2023-05-06T23:04:12.287Z,98636.06
2023-05-06T23:06:40.969Z,98637.94
2023-05-06T23:09:08.721Z,98637.81
2023-05-06T23:11:36.545Z,98639.78
2023-05-06T23:14:05.172Z,98638.75
2023-05-06T23:16:33.118Z,98647.59
2023-05-06T23:19:00.942Z,98654.09
2023-05-06T23:21:30.109Z,98646.97
2023-05-06T23:23:57.889Z,98647.53
2023-05-06T23:26:26.563Z,98639.78
2023-05-06T23:28:54.545Z,98641.75
2023-05-06T23:31:22.637Z,98639.47
2023-05-06T23:33:50.570Z,98639.84
2023-05-06T23:36:18.462Z,98639.16
2023-05-06T23:38:47.531Z,98643.25
2023-05-06T23:41:15.436Z,98639.19
2023-05-06T23:43:43.209Z,98645.81
2023-05-06T23:46:11.193Z,98654.78
2023-05-06T23:48:39.083Z,98655.25
2023-05-06T23:51:07.140Z,98653.06
2023-05-06T23:53:36.176Z,98649.47
2023-05-06T23:56:06.093Z,98648.69
2023-05-06T23:58:33.825Z,98644.75
